Time;durP1;ratioP1;P1;durP2;ratioP2;P2;SDS_P1;SDS_P2;PMS_P1;PMS_P2;Temp;Humidity;BMP_temperature;BMP_pressure;BME280_temperature;BME280_humidity;BME280_pressure;Samples;Min_cycle;Max_cycle;Signal;HPM_P1;HPM_P2
2023/01/24 00:00:50;;;;;;;12.68;7.60;;;;;;;;;;5073725;28;20659;-74
2023/01/24 00:03:19;;;;;;;12.40;8.18;;;;;;;;;;5063178;28;20248;-75
2023/01/24 00:05:48;;;;;;;16.13;8.38;;;;;;;;;;5054141;28;20194;-74
2023/01/24 00:08:18;;;;;;;13.40;8.57;;;;;;;;;;5063331;28;20263;-73
2023/01/24 00:10:46;;;;;;;9.73;6.82;;;;;;;;;;5074598;28;20186;-75
2023/01/24 00:13:14;;;;;;;14.85;9.02;;;;;;;;;;5064688;28;20197;-74
2023/01/24 00:15:42;;;;;;;15.35;7.88;;;;;;;;;;5054255;28;20284;-73
2023/01/24 00:18:09;;;;;;;13.75;8.00;;;;;;;;;;5061845;28;20212;-73
2023/01/24 00:20:38;;;;;;;18.30;7.85;;;;;;;;;;5053961;28;20202;-74
2023/01/24 00:23:06;;;;;;;12.13;8.60;;;;;;;;;;5060694;28;20585;-73
2023/01/24 00:25:33;;;;;;;14.60;9.05;;;;;;;;;;5074170;28;20212;-74
2023/01/24 00:28:01;;;;;;;14.05;8.23;;;;;;;;;;5068165;28;20652;-73
2023/01/24 00:30:28;;;;;;;15.88;9.38;;;;;;;;;;5055623;28;20306;-73
2023/01/24 00:32:55;;;;;;;13.48;7.82;;;;;;;;;;5073789;28;20186;-73
2023/01/24 00:35:23;;;;;;;14.73;7.82;;;;;;;;;;5072426;28;20657;-73
2023/01/24 00:37:51;;;;;;;15.35;10.13;;;;;;;;;;5054010;28;20198;-74
2023/01/24 00:40:19;;;;;;;15.02;8.65;;;;;;;;;;5054078;28;20374;-74
2023/01/24 00:42:46;;;;;;;15.73;8.60;;;;;;;;;;5073579;28;20186;-74
2023/01/24 00:45:14;;;;;;;15.77;9.23;;;;;;;;;;5073480;28;20217;-74
2023/01/24 00:47:41;;;;;;;17.08;8.45;;;;;;;;;;5073263;28;20224;-74
2023/01/24 00:50:09;;;;;;;13.13;8.13;;;;;;;;;;5073391;28;20263;-73
2023/01/24 00:52:36;;;;;;;12.70;7.80;;;;;;;;;;5053935;28;20194;-74
2023/01/24 00:55:06;;;;;;;17.83;9.40;;;;;;;;;;5053581;28;20194;-73
2023/01/24 00:57:33;;;;;;;14.80;8.52;;;;;;;;;;5065122;28;20213;-74
2023/01/24 01:00:01;;;;;;;13.35;7.47;;;;;;;;;;5053434;28;20501;-75
2023/01/24 01:02:28;;;;;;;13.75;7.50;;;;;;;;;;5067737;28;20193;-74
2023/01/24 01:04:56;;;;;;;15.32;9.13;;;;;;;;;;5073078;28;20194;-74
2023/01/24 01:07:24;;;;;;;13.90;9.07;;;;;;;;;;5058598;28;20216;-74
2023/01/24 01:09:52;;;;;;;15.02;8.90;;;;;;;;;;5053001;28;20653;-74
2023/01/24 01:12:21;;;;;;;14.85;9.07;;;;;;;;;;5072170;28;20243;-73
2023/01/24 01:14:48;;;;;;;16.38;7.65;;;;;;;;;;5073022;28;20281;-74
2023/01/24 01:17:16;;;;;;;14.02;7.60;;;;;;;;;;5069387;28;20198;-74
2023/01/24 01:19:44;;;;;;;9.98;6.53;;;;;;;;;;5053800;28;20183;-75
2023/01/24 01:22:11;;;;;;;11.80;8.27;;;;;;;;;;5053345;28;20285;-74
2023/01/24 01:24:39;;;;;;;12.75;6.70;;;;;;;;;;5055025;28;20198;-73
2023/01/24 01:27:06;;;;;;;10.60;6.90;;;;;;;;;;5052807;28;20198;-74
2023/01/24 01:29:36;;;;;;;10.75;6.85;;;;;;;;;;5058542;28;20186;-76
2023/01/24 01:32:03;;;;;;;13.52;7.60;;;;;;;;;;5072738;28;20239;-74
2023/01/24 01:34:31;;;;;;;9.32;5.70;;;;;;;;;;5067110;28;20187;-73
2023/01/24 01:36:58;;;;;;;10.68;5.88;;;;;;;;;;5052812;28;20198;-74
2023/01/24 01:39:26;;;;;;;10.10;5.70;;;;;;;;;;5056042;28;20193;-74
2023/01/24 01:41:53;;;;;;;9.77;6.45;;;;;;;;;;5072634;28;20276;-74
2023/01/24 01:44:43;;;;;;;9.45;5.50;;;;;;;;;;5068761;28;20228;-74
2023/01/24 01:47:23;;;;;;;8.93;6.32;;;;;;;;;;5032949;28;20195;-74
2023/01/24 01:49:54;;;;;;;11.77;6.68;;;;;;;;;;5032692;28;20190;-75
2023/01/24 01:52:22;;;;;;;10.38;6.90;;;;;;;;;;5052285;28;20610;-74
2023/01/24 01:54:50;;;;;;;10.32;5.10;;;;;;;;;;5051929;28;20222;-75
2023/01/24 01:57:18;;;;;;;13.18;7.00;;;;;;;;;;5052449;28;20229;-75
2023/01/24 01:59:48;;;;;;;9.85;5.72;;;;;;;;;;5045668;28;20187;-74
2023/01/24 02:02:16;;;;;;;9.32;5.03;;;;;;;;;;5052233;28;20218;-73
2023/01/24 02:04:47;;;;;;;9.10;5.32;;;;;;;;;;5051865;28;20182;-73
2023/01/24 02:07:20;;;;;;;12.23;7.15;;;;;;;;;;5043656;28;20198;-74
2023/01/24 02:09:48;;;;;;;10.50;7.25;;;;;;;;;;5046301;28;20613;-74
2023/01/24 02:12:19;;;;;;;12.38;7.00;;;;;;;;;;5044322;28;20191;-74
2023/01/24 02:17:33;;;;;;;11.52;6.45;;;;;;;;;;5052515;28;20185;-74
2023/01/24 02:20:06;;;;;;;13.70;7.47;;;;;;;;;;5050405;28;20194;-74
2023/01/24 02:22:37;;;;;;;13.40;7.65;;;;;;;;;;5051607;28;20190;-74
2023/01/24 02:25:10;;;;;;;13.23;7.28;;;;;;;;;;5051135;28;20186;-73
2023/01/24 02:27:39;;;;;;;12.52;7.15;;;;;;;;;;5051992;28;20193;-74
2023/01/24 02:30:07;;;;;;;8.73;6.75;;;;;;;;;;5043714;28;20195;-75
2023/01/24 02:32:34;;;;;;;11.75;7.50;;;;;;;;;;5051248;28;20248;-75
2023/01/24 02:35:01;;;;;;;13.82;7.15;;;;;;;;;;5051837;28;20277;-74
2023/01/24 02:37:29;;;;;;;13.07;6.80;;;;;;;;;;5051613;28;20236;-74
2023/01/24 02:39:58;;;;;;;12.10;7.22;;;;;;;;;;5049504;28;20191;-76
2023/01/24 02:42:27;;;;;;;13.73;7.13;;;;;;;;;;5051494;28;20190;-74
2023/01/24 02:44:58;;;;;;;15.15;6.88;;;;;;;;;;5047893;28;20254;-74
2023/01/24 02:47:32;;;;;;;13.80;9.20;;;;;;;;;;5041338;28;20212;-74
2023/01/24 02:49:59;;;;;;;12.25;6.70;;;;;;;;;;5052123;28;20597;-73
2023/01/24 02:55:12;;;;;;;11.35;7.32;;;;;;;;;;5032032;28;20308;-74
2023/01/24 03:00:26;;;;;;;11.60;6.95;;;;;;;;;;5050239;28;20193;-73
2023/01/24 03:02:53;;;;;;;14.20;7.38;;;;;;;;;;5031878;28;20187;-74
2023/01/24 03:05:21;;;;;;;13.60;7.53;;;;;;;;;;5047338;28;20186;-74
2023/01/24 03:07:48;;;;;;;10.65;6.68;;;;;;;;;;5035418;28;20708;-73
2023/01/24 03:10:16;;;;;;;12.23;8.10;;;;;;;;;;5033726;28;20191;-74
2023/01/24 03:34:48;;;;;;;12.13;7.03;;;;;;;;;;5051542;28;20304;-74
2023/01/24 03:37:17;;;;;;;15.45;7.53;;;;;;;;;;5037715;28;20199;-75
2023/01/24 03:39:58;;;;;;;15.77;6.90;;;;;;;;;;5035088;28;20199;-73
2023/01/24 03:42:27;;;;;;;9.23;5.97;;;;;;;;;;5046937;28;20238;-73
2023/01/24 03:44:55;;;;;;;13.60;7.22;;;;;;;;;;5038611;28;20227;-73
2023/01/24 03:47:23;;;;;;;11.00;7.00;;;;;;;;;;5072386;28;20208;-74
2023/01/24 03:52:36;;;;;;;7.82;5.32;;;;;;;;;;5055086;28;20561;-73
2023/01/24 03:55:03;;;;;;;12.95;7.45;;;;;;;;;;5054616;28;20202;-75
2023/01/24 03:57:31;;;;;;;10.70;6.75;;;;;;;;;;5071508;28;20186;-74
2023/01/24 03:59:58;;;;;;;12.80;6.63;;;;;;;;;;5074481;28;20206;-74
2023/01/24 04:02:27;;;;;;;10.18;6.28;;;;;;;;;;5058227;28;20543;-72
2023/01/24 04:07:39;;;;;;;12.05;6.85;;;;;;;;;;5071595;28;20216;-74
2023/01/24 04:10:07;;;;;;;10.75;7.18;;;;;;;;;;5073873;28;20217;-74
2023/01/24 04:12:34;;;;;;;8.73;6.43;;;;;;;;;;5057773;28;20187;-74
2023/01/24 04:15:02;;;;;;;12.82;7.68;;;;;;;;;;5054434;28;20190;-74
2023/01/24 04:17:34;;;;;;;9.93;6.40;;;;;;;;;;5068520;28;20224;-74
2023/01/24 04:20:02;;;;;;;10.98;7.30;;;;;;;;;;5074174;28;20241;-74
2023/01/24 04:22:30;;;;;;;11.75;7.05;;;;;;;;;;5064428;28;20186;-74
2023/01/24 04:24:57;;;;;;;13.63;8.57;;;;;;;;;;5074410;28;20276;-74
2023/01/24 04:27:25;;;;;;;10.00;7.35;;;;;;;;;;5061229;28;20236;-74
2023/01/24 04:29:52;;;;;;;12.40;8.07;;;;;;;;;;5054054;28;20257;-74
2023/01/24 04:32:20;;;;;;;10.88;7.85;;;;;;;;;;5064685;28;20186;-74
2023/01/24 04:34:48;;;;;;;13.10;9.27;;;;;;;;;;5074221;28;20636;-74
2023/01/24 04:37:16;;;;;;;19.95;10.88;;;;;;;;;;5063853;28;20582;-74
2023/01/24 04:39:43;;;;;;;23.63;11.68;;;;;;;;;;5054236;28;20281;-74
2023/01/24 04:42:11;;;;;;;20.73;11.80;;;;;;;;;;5061597;28;20217;-74
2023/01/24 04:44:38;;;;;;;16.73;9.70;;;;;;;;;;5071554;28;20189;-74
2023/01/24 04:47:06;;;;;;;14.80;9.85;;;;;;;;;;5053271;28;20225;-75
2023/01/24 04:49:33;;;;;;;19.50;13.77;;;;;;;;;;5053317;28;20226;-74
2023/01/24 04:52:02;;;;;;;24.90;13.05;;;;;;;;;;5073504;28;20573;-82
2023/01/24 04:54:29;;;;;;;21.48;11.77;;;;;;;;;;5053447;28;20198;-74
2023/01/24 04:56:56;;;;;;;15.85;10.27;;;;;;;;;;5053987;28;20196;-75
2023/01/24 04:59:24;;;;;;;23.48;12.88;;;;;;;;;;5053966;28;20248;-74
2023/01/24 05:01:51;;;;;;;18.27;10.68;;;;;;;;;;5053832;28;20197;-74
2023/01/24 05:04:19;;;;;;;16.70;10.55;;;;;;;;;;5071194;28;20225;-74
2023/01/24 05:06:46;;;;;;;24.42;11.60;;;;;;;;;;5073686;28;20194;-73
2023/01/24 05:09:15;;;;;;;16.65;10.95;;;;;;;;;;5047957;28;20225;-75
2023/01/24 05:11:42;;;;;;;19.58;11.90;;;;;;;;;;5054003;28;20202;-74
2023/01/24 05:14:10;;;;;;;17.17;10.57;;;;;;;;;;5073506;28;20201;-74
2023/01/24 05:16:37;;;;;;;19.95;12.55;;;;;;;;;;5072692;28;20190;-79
2023/01/24 05:19:05;;;;;;;19.90;12.75;;;;;;;;;;5072841;28;20185;-75
2023/01/24 05:21:32;;;;;;;20.52;13.05;;;;;;;;;;5073476;28;20562;-75
2023/01/24 05:24:00;;;;;;;30.02;17.80;;;;;;;;;;5065255;28;20194;-74
2023/01/24 05:26:29;;;;;;;30.75;16.40;;;;;;;;;;5070502;28;20197;-75
2023/01/24 05:28:56;;;;;;;16.33;11.38;;;;;;;;;;5065325;28;20328;-74
2023/01/24 05:31:24;;;;;;;16.73;10.75;;;;;;;;;;5070012;28;20235;-74
2023/01/24 05:33:51;;;;;;;21.45;13.35;;;;;;;;;;5054700;28;20336;-75
2023/01/24 05:36:20;;;;;;;17.63;12.30;;;;;;;;;;5067423;28;20225;-74
2023/01/24 05:38:48;;;;;;;15.05;12.00;;;;;;;;;;5062496;28;20178;-74
2023/01/24 05:41:19;;;;;;;15.52;10.65;;;;;;;;;;5068934;28;20208;-76
2023/01/24 05:43:48;;;;;;;14.45;10.00;;;;;;;;;;5066333;28;20211;-78
2023/01/24 05:46:17;;;;;;;13.73;8.35;;;;;;;;;;5058127;28;20584;-74
2023/01/24 05:48:45;;;;;;;13.23;8.82;;;;;;;;;;5067374;28;20304;-73
2023/01/24 05:51:13;;;;;;;14.93;10.25;;;;;;;;;;5052168;28;20190;-74
2023/01/24 05:53:41;;;;;;;15.93;10.38;;;;;;;;;;5063373;28;20225;-75
2023/01/24 05:56:12;;;;;;;14.68;10.32;;;;;;;;;;5070035;28;20281;-74
2023/01/24 05:58:39;;;;;;;13.55;8.90;;;;;;;;;;5068862;28;20189;-75
2023/01/24 06:01:09;;;;;;;12.88;9.32;;;;;;;;;;5069858;28;20189;-76
2023/01/24 06:03:38;;;;;;;14.63;10.13;;;;;;;;;;5067897;28;20200;-79
2023/01/24 06:06:06;;;;;;;13.95;8.00;;;;;;;;;;5058117;28;20183;-75
2023/01/24 06:08:34;;;;;;;13.40;9.70;;;;;;;;;;5066203;28;20196;-81
2023/01/24 06:11:06;;;;;;;13.25;7.78;;;;;;;;;;5055048;28;20217;-74
2023/01/24 06:13:33;;;;;;;11.88;9.50;;;;;;;;;;5067844;28;20280;-74
2023/01/24 06:16:05;;;;;;;11.43;7.95;;;;;;;;;;5068419;28;20613;-74
2023/01/24 06:18:34;;;;;;;13.00;8.15;;;;;;;;;;5057245;28;20203;-75
2023/01/24 06:21:06;;;;;;;15.02;10.32;;;;;;;;;;5066994;28;20625;-76
2023/01/24 06:23:34;;;;;;;14.07;9.55;;;;;;;;;;5051536;28;20530;-74
2023/01/24 06:26:02;;;;;;;14.13;9.65;;;;;;;;;;5065056;28;20224;-75
2023/01/24 06:28:29;;;;;;;14.40;9.98;;;;;;;;;;5068489;28;20197;-74
2023/01/24 06:31:01;;;;;;;12.35;9.30;;;;;;;;;;5068606;28;20279;-75
2023/01/24 06:33:35;;;;;;;15.10;8.18;;;;;;;;;;5051456;28;20284;-75
2023/01/24 06:36:17;;;;;;;12.80;9.00;;;;;;;;;;5051379;28;20555;-76
2023/01/24 06:38:46;;;;;;;13.05;8.90;;;;;;;;;;5049009;28;20197;-74
2023/01/24 06:41:16;;;;;;;18.95;9.55;;;;;;;;;;5066713;28;20230;-75
2023/01/24 06:43:44;;;;;;;14.35;9.23;;;;;;;;;;5059807;28;20197;-75
2023/01/24 06:46:12;;;;;;;13.00;10.40;;;;;;;;;;5064946;28;20691;-74
2023/01/24 06:48:39;;;;;;;17.20;13.15;;;;;;;;;;5051538;28;20223;-74
2023/01/24 06:51:07;;;;;;;12.68;8.32;;;;;;;;;;5064255;28;20289;-75
2023/01/24 06:53:34;;;;;;;14.98;9.77;;;;;;;;;;5052796;28;20209;-74
2023/01/24 06:56:03;;;;;;;15.18;10.60;;;;;;;;;;5064995;28;20442;-75
2023/01/24 06:58:30;;;;;;;16.13;8.68;;;;;;;;;;5060692;28;20278;-75
2023/01/24 07:00:57;;;;;;;15.05;9.48;;;;;;;;;;5051500;28;20195;-75
2023/01/24 07:03:25;;;;;;;14.73;8.93;;;;;;;;;;5066053;28;20268;-74
2023/01/24 07:05:52;;;;;;;10.57;7.47;;;;;;;;;;5068379;28;20240;-73
2023/01/24 07:08:20;;;;;;;14.05;8.43;;;;;;;;;;5068596;28;20205;-75
2023/01/24 07:10:48;;;;;;;18.70;10.48;;;;;;;;;;5059639;28;20546;-79
2023/01/24 07:13:19;;;;;;;21.27;10.85;;;;;;;;;;5067098;28;20200;-74
2023/01/24 07:15:48;;;;;;;15.70;9.98;;;;;;;;;;5055327;28;20236;-75
2023/01/24 07:18:17;;;;;;;14.20;8.68;;;;;;;;;;5054827;28;20234;-74
2023/01/24 07:20:45;;;;;;;13.98;9.77;;;;;;;;;;5070751;28;20198;-74
2023/01/24 07:23:20;;;;;;;15.27;8.40;;;;;;;;;;5071791;28;20280;-74
2023/01/24 07:25:51;;;;;;;11.93;7.78;;;;;;;;;;5059041;28;20190;-74
2023/01/24 07:28:20;;;;;;;13.75;9.43;;;;;;;;;;5056294;28;20558;-74
2023/01/24 07:30:48;;;;;;;18.52;12.00;;;;;;;;;;5070014;28;20217;-74
2023/01/24 07:33:16;;;;;;;18.95;11.38;;;;;;;;;;5071136;28;20284;-74
2023/01/24 07:35:44;;;;;;;17.45;11.70;;;;;;;;;;5074748;28;20185;-74
2023/01/24 07:38:12;;;;;;;15.07;9.45;;;;;;;;;;5060190;28;20186;-73
2023/01/24 07:40:39;;;;;;;14.52;9.60;;;;;;;;;;5055564;28;20190;-74
2023/01/24 07:43:07;;;;;;;13.32;8.75;;;;;;;;;;5056490;28;20212;-74
2023/01/24 07:45:37;;;;;;;12.27;7.35;;;;;;;;;;5075157;28;20312;-76
2023/01/24 07:48:05;;;;;;;14.38;9.18;;;;;;;;;;5075298;28;20192;-75
2023/01/24 07:50:33;;;;;;;11.68;8.05;;;;;;;;;;5075233;28;20264;-74
2023/01/24 07:53:00;;;;;;;14.00;7.78;;;;;;;;;;5075377;28;20240;-74
2023/01/24 07:55:27;;;;;;;13.00;8.02;;;;;;;;;;5075327;28;20261;-74
2023/01/24 07:57:58;;;;;;;12.90;7.93;;;;;;;;;;5075484;28;20293;-74
2023/01/24 08:00:26;;;;;;;11.43;6.50;;;;;;;;;;5060702;28;20646;-75
2023/01/24 08:02:54;;;;;;;9.40;7.28;;;;;;;;;;5064136;28;20224;-76
2023/01/24 08:05:22;;;;;;;12.90;8.90;;;;;;;;;;5055194;28;20400;-75
2023/01/24 08:07:49;;;;;;;11.18;7.15;;;;;;;;;;5061298;28;20221;-74
2023/01/24 08:10:16;;;;;;;10.48;7.15;;;;;;;;;;5075116;28;20253;-74
2023/01/24 08:12:43;;;;;;;10.10;7.05;;;;;;;;;;5075268;28;20190;-74
2023/01/24 08:15:11;;;;;;;13.43;9.10;;;;;;;;;;5074913;28;20228;-74
2023/01/24 08:17:39;;;;;;;13.30;7.22;;;;;;;;;;5074940;28;20225;-74
2023/01/24 08:20:09;;;;;;;8.85;6.93;;;;;;;;;;5074674;28;20656;-74
2023/01/24 08:22:36;;;;;;;12.80;8.50;;;;;;;;;;5074289;28;20284;-74
2023/01/24 08:25:03;;;;;;;13.60;7.80;;;;;;;;;;5074925;28;20243;-73
2023/01/24 08:27:30;;;;;;;13.98;7.05;;;;;;;;;;5074837;28;20189;-75
2023/01/24 08:29:58;;;;;;;12.43;8.35;;;;;;;;;;5074645;28;20568;-74
2023/01/24 08:32:25;;;;;;;12.05;6.75;;;;;;;;;;5074395;28;20277;-75
2023/01/24 08:34:52;;;;;;;13.30;9.23;;;;;;;;;;5074411;28;20247;-73
2023/01/24 08:37:21;;;;;;;12.63;9.25;;;;;;;;;;5074202;28;20239;-73
2023/01/24 08:39:48;;;;;;;16.05;9.13;;;;;;;;;;5074587;28;20721;-72
2023/01/24 08:42:15;;;;;;;12.68;8.18;;;;;;;;;;5074508;28;20567;-72
2023/01/24 08:44:42;;;;;;;12.02;8.05;;;;;;;;;;5074268;28;20186;-73
2023/01/24 08:47:09;;;;;;;11.50;7.50;;;;;;;;;;5073832;28;20185;-74
2023/01/24 08:49:37;;;;;;;9.20;6.90;;;;;;;;;;5074192;28;20628;-74
2023/01/24 08:52:04;;;;;;;12.45;7.95;;;;;;;;;;5074324;28;20618;-74
2023/01/24 08:54:34;;;;;;;12.95;7.90;;;;;;;;;;5074180;28;20221;-73
2023/01/24 08:57:02;;;;;;;17.45;11.25;;;;;;;;;;5074207;28;20193;-73
2023/01/24 08:59:29;;;;;;;17.50;11.55;;;;;;;;;;5073972;28;20221;-74
2023/01/24 09:01:56;;;;;;;13.15;8.63;;;;;;;;;;5073962;28;20189;-74
2023/01/24 09:04:26;;;;;;;12.05;7.45;;;;;;;;;;5073994;28;20197;-74
2023/01/24 09:06:53;;;;;;;12.07;8.30;;;;;;;;;;5054062;28;20195;-75
2023/01/24 09:09:21;;;;;;;11.13;7.75;;;;;;;;;;5054125;28;20221;-74
2023/01/24 09:11:49;;;;;;;10.98;7.20;;;;;;;;;;5053843;28;20611;-75
2023/01/24 09:14:16;;;;;;;11.35;7.40;;;;;;;;;;5053835;28;20277;-74
2023/01/24 09:16:44;;;;;;;14.35;8.38;;;;;;;;;;5053915;28;20614;-74
2023/01/24 09:19:12;;;;;;;12.20;6.47;;;;;;;;;;5053555;28;20233;-74
2023/01/24 09:21:39;;;;;;;11.77;7.90;;;;;;;;;;5053652;28;20190;-74
2023/01/24 09:24:07;;;;;;;13.50;7.93;;;;;;;;;;5053180;28;20190;-74
2023/01/24 09:26:34;;;;;;;9.68;6.68;;;;;;;;;;5053530;28;20191;-74
2023/01/24 09:29:03;;;;;;;14.13;7.78;;;;;;;;;;5054946;28;20190;-74
2023/01/24 09:31:30;;;;;;;10.27;8.30;;;;;;;;;;5073419;28;20229;-74
2023/01/24 09:33:57;;;;;;;10.70;7.75;;;;;;;;;;5072223;28;20224;-74
2023/01/24 09:36:24;;;;;;;13.60;7.18;;;;;;;;;;5072998;28;20210;-74
2023/01/24 09:38:52;;;;;;;10.38;8.35;;;;;;;;;;5073133;28;20193;-73
2023/01/24 09:41:25;;;;;;;10.90;7.15;;;;;;;;;;5073103;28;20198;-75
2023/01/24 09:43:53;;;;;;;12.82;8.68;;;;;;;;;;5073449;28;20189;-75
2023/01/24 09:46:27;;;;;;;9.20;7.30;;;;;;;;;;5073058;28;20256;-75
2023/01/24 09:48:59;;;;;;;8.98;6.38;;;;;;;;;;5073135;28;20190;-74
2023/01/24 09:51:29;;;;;;;13.55;6.95;;;;;;;;;;5073372;28;20683;-73
2023/01/24 09:53:57;;;;;;;12.30;7.40;;;;;;;;;;5073192;28;20236;-75
2023/01/24 09:56:30;;;;;;;10.70;7.53;;;;;;;;;;5073249;28;20229;-75
2023/01/24 09:59:11;;;;;;;11.80;8.32;;;;;;;;;;5072972;28;20190;-75
2023/01/24 10:01:40;;;;;;;11.40;7.95;;;;;;;;;;5073180;28;20219;-75
2023/01/24 10:04:14;;;;;;;13.60;9.63;;;;;;;;;;5065589;28;20652;-75
2023/01/24 10:06:42;;;;;;;14.52;9.40;;;;;;;;;;5072411;28;20225;-74
2023/01/24 10:09:12;;;;;;;12.18;9.55;;;;;;;;;;5072829;28;20300;-74
2023/01/24 10:11:46;;;;;;;13.07;9.82;;;;;;;;;;5072868;28;20551;-74
2023/01/24 10:14:33;;;;;;;20.60;12.55;;;;;;;;;;5072406;28;20236;-74
2023/01/24 10:17:19;;;;;;;13.27;9.65;;;;;;;;;;5072856;28;20567;-74
2023/01/24 10:19:55;;;;;;;16.92;10.55;;;;;;;;;;5072228;28;20262;-74
2023/01/24 10:22:32;;;;;;;15.32;10.30;;;;;;;;;;5072738;28;20280;-75
2023/01/24 10:25:02;;;;;;;24.50;12.90;;;;;;;;;;5072892;28;20193;-75
2023/01/24 10:27:32;;;;;;;15.32;9.93;;;;;;;;;;5072589;28;20229;-74
2023/01/24 10:30:01;;;;;;;17.75;11.98;;;;;;;;;;5072678;28;20189;-74
2023/01/24 10:32:32;;;;;;;18.17;10.45;;;;;;;;;;5072620;28;20587;-74
2023/01/24 10:35:04;;;;;;;19.35;11.40;;;;;;;;;;5072274;28;20189;-73
2023/01/24 10:37:33;;;;;;;28.10;20.02;;;;;;;;;;5072909;28;20190;-74
2023/01/24 10:40:01;;;;;;;17.50;11.10;;;;;;;;;;5072603;28;20198;-74
2023/01/24 10:42:29;;;;;;;17.58;10.75;;;;;;;;;;5072493;28;20193;-74
2023/01/24 10:44:59;;;;;;;16.52;10.57;;;;;;;;;;5074416;28;20323;-74
2023/01/24 10:47:40;;;;;;;21.92;12.82;;;;;;;;;;5076845;28;20259;-74
2023/01/24 10:50:10;;;;;;;19.92;12.93;;;;;;;;;;5076591;28;20288;-73
2023/01/24 10:52:37;;;;;;;15.23;9.75;;;;;;;;;;5076428;28;20190;-74
2023/01/24 10:55:10;;;;;;;17.02;11.15;;;;;;;;;;5076514;28;20243;-74
2023/01/24 10:57:40;;;;;;;13.93;10.45;;;;;;;;;;5074183;28;20197;-74
2023/01/24 11:00:17;;;;;;;14.88;9.68;;;;;;;;;;5076334;28;20200;-74
2023/01/24 11:02:47;;;;;;;18.08;12.90;;;;;;;;;;5076345;28;20292;-74
2023/01/24 11:05:16;;;;;;;16.20;10.77;;;;;;;;;;5076426;28;20193;-74
2023/01/24 11:07:46;;;;;;;16.35;10.98;;;;;;;;;;5076118;28;20262;-74
2023/01/24 11:10:19;;;;;;;18.98;10.40;;;;;;;;;;5067615;28;20284;-74
2023/01/24 11:12:50;;;;;;;17.80;11.45;;;;;;;;;;5076251;28;20644;-74
2023/01/24 11:15:20;;;;;;;22.02;11.80;;;;;;;;;;5076259;28;20687;-75
2023/01/24 11:17:47;;;;;;;20.83;13.38;;;;;;;;;;5075829;28;20597;-74
2023/01/24 11:20:27;;;;;;;19.88;11.15;;;;;;;;;;5075843;28;20239;-75
2023/01/24 11:23:02;;;;;;;22.67;13.15;;;;;;;;;;5076035;28;20255;-75
2023/01/24 11:25:29;;;;;;;17.30;11.77;;;;;;;;;;5075639;28;20280;-75
2023/01/24 11:27:59;;;;;;;19.83;12.70;;;;;;;;;;5075669;28;20232;-74
2023/01/24 11:30:28;;;;;;;21.70;12.43;;;;;;;;;;5075410;28;20208;-74
2023/01/24 11:33:02;;;;;;;22.60;13.00;;;;;;;;;;5075655;28;20276;-75
2023/01/24 11:35:33;;;;;;;24.67;14.13;;;;;;;;;;5075765;28;20221;-74
2023/01/24 11:38:24;;;;;;;19.77;12.93;;;;;;;;;;5075672;28;20264;-74
2023/01/24 11:41:00;;;;;;;22.83;14.43;;;;;;;;;;5049683;28;20189;-74
2023/01/24 11:43:45;;;;;;;24.60;13.55;;;;;;;;;;5074868;28;20193;-75
2023/01/24 11:46:17;;;;;;;18.42;11.88;;;;;;;;;;5075061;28;20221;-74
2023/01/24 11:48:49;;;;;;;22.58;13.80;;;;;;;;;;5060682;28;20317;-74
2023/01/24 11:51:21;;;;;;;20.38;13.75;;;;;;;;;;5074865;28;20217;-74
2023/01/24 11:54:04;;;;;;;23.48;13.93;;;;;;;;;;5075026;28;20243;-74
2023/01/24 11:56:38;;;;;;;31.50;18.45;;;;;;;;;;5073333;28;20652;-74
2023/01/24 11:59:24;;;;;;;24.25;14.27;;;;;;;;;;5066020;28;20552;-73
2023/01/24 12:01:54;;;;;;;22.42;14.30;;;;;;;;;;5038291;28;20190;-74
2023/01/24 12:04:35;;;;;;;20.52;13.13;;;;;;;;;;5067477;28;20227;-75
2023/01/24 12:07:06;;;;;;;28.35;16.55;;;;;;;;;;5065432;28;20659;-74
2023/01/24 12:09:38;;;;;;;26.48;14.00;;;;;;;;;;5074059;28;20251;-74
2023/01/24 12:12:10;;;;;;;24.80;14.35;;;;;;;;;;5073698;28;20209;-73
2023/01/24 12:14:47;;;;;;;19.90;13.55;;;;;;;;;;5074402;28;20608;-74
2023/01/24 12:17:22;;;;;;;24.45;13.65;;;;;;;;;;5073827;28;20185;-74
2023/01/24 12:19:58;;;;;;;27.90;15.48;;;;;;;;;;5073929;28;20216;-73
2023/01/24 12:22:28;;;;;;;20.70;13.15;;;;;;;;;;5074235;28;20189;-75
2023/01/24 12:24:56;;;;;;;22.52;13.95;;;;;;;;;;5073729;28;20233;-74
2023/01/24 12:27:25;;;;;;;24.80;14.07;;;;;;;;;;5060439;28;20218;-75
2023/01/24 12:29:56;;;;;;;23.10;13.13;;;;;;;;;;5070421;28;20616;-74
2023/01/24 12:32:27;;;;;;;21.77;11.73;;;;;;;;;;5074210;28;20305;-75
2023/01/24 12:34:57;;;;;;;20.33;10.52;;;;;;;;;;5074631;28;20194;-75
2023/01/24 12:37:29;;;;;;;19.15;11.18;;;;;;;;;;5074631;28;20190;-74
2023/01/24 12:40:00;;;;;;;17.33;11.07;;;;;;;;;;5074361;28;20194;-74
2023/01/24 12:42:34;;;;;;;18.63;10.98;;;;;;;;;;5074510;28;20189;-73
2023/01/24 12:45:03;;;;;;;15.82;10.18;;;;;;;;;;5074445;28;20260;-74
2023/01/24 12:47:37;;;;;;;18.70;10.82;;;;;;;;;;5074500;28;20277;-73
2023/01/24 12:50:16;;;;;;;14.85;9.50;;;;;;;;;;5074409;28;20255;-73
2023/01/24 12:52:48;;;;;;;14.05;9.55;;;;;;;;;;5074348;28;20217;-73
2023/01/24 12:55:16;;;;;;;18.63;11.13;;;;;;;;;;5074024;28;20272;-74
2023/01/24 12:57:46;;;;;;;18.33;10.30;;;;;;;;;;5074110;28;20217;-73
2023/01/24 13:00:17;;;;;;;15.50;10.88;;;;;;;;;;5074368;28;20276;-73
2023/01/24 13:03:13;;;;;;;18.45;11.05;;;;;;;;;;5074133;28;20205;-73
2023/01/24 13:05:45;;;;;;;16.20;10.43;;;;;;;;;;5037165;28;20197;-73
2023/01/24 13:08:21;;;;;;;20.00;11.65;;;;;;;;;;5073623;28;20225;-73
2023/01/24 13:10:52;;;;;;;16.27;9.77;;;;;;;;;;5073866;28;20184;-75
2023/01/24 13:13:20;;;;;;;15.45;8.85;;;;;;;;;;5073875;28;20259;-74
2023/01/24 13:15:54;;;;;;;17.52;10.88;;;;;;;;;;5073725;28;20208;-74
2023/01/24 13:18:27;;;;;;;18.20;10.75;;;;;;;;;;5073653;28;20217;-78
2023/01/24 13:21:05;;;;;;;19.02;10.73;;;;;;;;;;5073671;28;20240;-74
2023/01/24 13:23:52;;;;;;;17.77;10.63;;;;;;;;;;5073887;28;20229;-73
2023/01/24 13:26:30;;;;;;;21.10;11.05;;;;;;;;;;5073662;28;20221;-74
2023/01/24 13:29:08;;;;;;;17.33;9.90;;;;;;;;;;5073632;28;20224;-74
2023/01/24 13:31:39;;;;;;;19.67;10.70;;;;;;;;;;5073529;28;20225;-74
2023/01/24 13:34:11;;;;;;;17.35;10.55;;;;;;;;;;5073568;28;20532;-74
2023/01/24 13:36:40;;;;;;;17.70;10.48;;;;;;;;;;5073383;28;20197;-75
2023/01/24 13:39:29;;;;;;;17.38;10.45;;;;;;;;;;5073544;28;20280;-74
2023/01/24 13:42:02;;;;;;;15.95;9.60;;;;;;;;;;5072959;28;20203;-74
2023/01/24 13:44:33;;;;;;;13.40;8.50;;;;;;;;;;5073012;28;20200;-74
2023/01/24 13:47:01;;;;;;;13.82;9.18;;;;;;;;;;5073091;28;20193;-73
2023/01/24 13:49:37;;;;;;;18.88;10.90;;;;;;;;;;5072938;28;20190;-75
2023/01/24 13:52:05;;;;;;;16.55;9.93;;;;;;;;;;5072871;28;20216;-74
2023/01/24 13:54:41;;;;;;;12.88;8.70;;;;;;;;;;5073110;28;20194;-74
2023/01/24 13:57:27;;;;;;;14.82;9.13;;;;;;;;;;5072957;28;20658;-73
2023/01/24 14:00:24;;;;;;;13.50;9.50;;;;;;;;;;5072792;28;20190;-74
2023/01/24 14:03:02;;;;;;;19.45;10.70;;;;;;;;;;5072990;28;20255;-75
2023/01/24 14:05:45;;;;;;;15.57;9.63;;;;;;;;;;5073064;28;20224;-74
2023/01/24 14:08:45;;;;;;;18.80;11.30;;;;;;;;;;5072626;28;20540;-74
2023/01/24 14:11:19;;;;;;;15.32;8.98;;;;;;;;;;5010524;28;20223;-74
2023/01/24 14:13:55;;;;;;;14.38;9.93;;;;;;;;;;5010712;28;20306;-73
2023/01/24 14:16:37;;;;;;;17.23;10.20;;;;;;;;;;5038780;28;20279;-74
2023/01/24 14:19:13;;;;;;;14.82;7.93;;;;;;;;;;5071494;28;20197;-74
2023/01/24 14:21:47;;;;;;;14.40;8.82;;;;;;;;;;5072869;28;20254;-74
2023/01/24 14:24:20;;;;;;;13.75;8.73;;;;;;;;;;5072620;28;20546;-74
2023/01/24 14:26:53;;;;;;;12.40;7.75;;;;;;;;;;5073031;28;20192;-74
2023/01/24 14:29:22;;;;;;;13.38;8.23;;;;;;;;;;5072617;28;20193;-75
2023/01/24 14:31:53;;;;;;;14.05;8.50;;;;;;;;;;5072405;28;20609;-74
2023/01/24 14:34:23;;;;;;;16.95;9.07;;;;;;;;;;5072766;28;20189;-75
2023/01/24 14:36:58;;;;;;;17.75;9.13;;;;;;;;;;5072565;28;20225;-75
2023/01/24 14:39:26;;;;;;;15.73;10.57;;;;;;;;;;5072671;28;20275;-74
2023/01/24 14:41:57;;;;;;;15.20;8.55;;;;;;;;;;5072447;28;20590;-75
2023/01/24 14:44:26;;;;;;;13.65;8.18;;;;;;;;;;5072616;28;20247;-74
2023/01/24 14:46:55;;;;;;;14.15;9.15;;;;;;;;;;5072416;28;20243;-74
2023/01/24 14:49:29;;;;;;;13.90;8.57;;;;;;;;;;5072247;28;20197;-74
2023/01/24 14:51:56;;;;;;;13.70;8.68;;;;;;;;;;5072351;28;20308;-73
2023/01/24 14:54:24;;;;;;;15.50;9.82;;;;;;;;;;5072253;28;20285;-75
2023/01/24 14:56:52;;;;;;;16.25;10.77;;;;;;;;;;5071926;28;20281;-76
2023/01/24 14:59:22;;;;;;;18.15;9.48;;;;;;;;;;5072558;28;20221;-73
2023/01/24 15:01:51;;;;;;;14.68;9.50;;;;;;;;;;5072528;28;20281;-74
2023/01/24 15:04:24;;;;;;;30.38;14.82;;;3.90;88.60;;;;;;5072476;28;20296;-76
2023/01/24 15:07:11;;;;;;;17.02;10.35;;;3.80;88.90;;;;;;5072458;28;20703;-74
2023/01/24 15:09:39;;;;;;;17.27;10.60;;;3.80;88.50;;;;;;5072455;28;20194;-73
2023/01/24 15:12:15;;;;;;;16.42;9.65;;;3.80;89.10;;;;;;5072274;28;20253;-73
2023/01/24 15:14:50;;;;;;;15.32;9.38;;;3.80;89.20;;;;;;5071808;28;20643;-73
2023/01/24 15:17:21;;;;;;;13.90;8.70;;;3.80;89.00;;;;;;5072297;28;20284;-73